createdAt,value
2022-12-16T00:01:29.607Z,160.38
2022-12-16T00:06:33.883Z,138.13
2022-12-16T00:11:37.071Z,154.13
2022-12-16T00:16:39.587Z,122.35
2022-12-16T00:21:42.225Z,100.20
2022-12-16T00:26:44.813Z,112.10
2022-12-16T00:31:48.151Z,115.43
2022-12-16T00:36:53.481Z,153.85
2022-12-16T00:41:56.124Z,139.48
2022-12-16T00:46:59.426Z,111.97
2022-12-16T00:52:02.272Z,169.30
2022-12-16T00:57:04.795Z,168.70
2022-12-16T01:02:07.821Z,184.55
2022-12-16T01:07:11.027Z,190.40
2022-12-16T01:12:13.695Z,160.43
2022-12-16T01:17:16.767Z,174.27
2022-12-16T01:22:22.221Z,192.27
2022-12-16T01:27:24.773Z,213.05
2022-12-16T01:32:27.461Z,186.07
2022-12-16T01:37:30.095Z,189.82
2022-12-16T01:42:33.797Z,185.02
2022-12-16T01:47:36.315Z,187.57
2022-12-16T01:52:42.367Z,202.20
2022-12-16T01:57:59.325Z,199.13
2022-12-16T02:03:04.094Z,197.50
2022-12-16T02:08:06.705Z,192.48
2022-12-16T02:13:47.001Z,198.57
2022-12-16T02:19:08.392Z,206.70
2022-12-16T02:24:49.530Z,203.73
2022-12-16T02:30:08.809Z,226.80
2022-12-16T02:35:11.350Z,220.73
2022-12-16T02:40:31.423Z,222.70
2022-12-16T02:45:34.762Z,191.77
2022-12-16T02:50:55.920Z,219.88
2022-12-16T02:56:19.874Z,206.77
2022-12-16T03:01:36.588Z,231.57
2022-12-16T03:06:41.168Z,203.10
2022-12-16T03:11:44.441Z,224.57
2022-12-16T03:16:48.223Z,202.60
2022-12-16T03:22:07.887Z,215.35
2022-12-16T03:27:37.413Z,221.88
2022-12-16T03:32:41.414Z,224.20
2022-12-16T03:37:45.166Z,211.13
2022-12-16T03:42:48.554Z,228.82
2022-12-16T03:47:51.836Z,250.75
2022-12-16T03:52:54.414Z,238.70
2022-12-16T03:57:57.339Z,252.95
2022-12-16T04:03:00.316Z,239.00
2022-12-16T04:08:04.934Z,253.10
2022-12-16T04:13:28.125Z,224.63
2022-12-16T04:18:49.531Z,233.55
2022-12-16T04:24:14.298Z,240.80
2022-12-16T04:29:17.338Z,225.18
2022-12-16T04:34:29.178Z,226.93
2022-12-16T04:39:50.378Z,247.50
2022-12-16T04:45:11.559Z,220.50
2022-12-16T04:50:33.183Z,228.52
2022-12-16T04:55:56.849Z,216.38
2022-12-16T05:01:21.879Z,210.95
2022-12-16T05:06:42.937Z,216.85
2022-12-16T05:12:04.614Z,222.70
2022-12-16T05:17:25.784Z,193.38
2022-12-16T05:22:47.336Z,185.75
2022-12-16T05:28:12.287Z,165.73
2022-12-16T05:33:34.015Z,159.27
2022-12-16T05:38:55.429Z,139.40
2022-12-16T05:44:16.438Z,139.20
2022-12-16T05:49:37.845Z,124.55
2022-12-16T05:54:58.919Z,89.97
2022-12-16T06:00:19.964Z,113.88
2022-12-16T06:05:41.093Z,104.13
2022-12-16T06:11:02.266Z,96.32
2022-12-16T06:16:24.274Z,87.07
2022-12-16T06:21:45.402Z,71.90
2022-12-16T06:27:06.487Z,77.40
2022-12-16T06:32:27.699Z,63.88
2022-12-16T06:37:49.033Z,50.40
2022-12-16T06:43:14.855Z,101.63
2022-12-16T06:48:35.849Z,78.65
2022-12-16T06:53:56.979Z,77.57
2022-12-16T06:59:18.204Z,73.50
2022-12-16T07:04:39.444Z,55.10
2022-12-16T07:10:00.630Z,64.30
2022-12-16T07:15:22.196Z,56.58
2022-12-16T07:20:44.051Z,70.43
2022-12-16T07:26:05.425Z,52.85
2022-12-16T07:31:26.860Z,53.00
2022-12-16T07:36:48.093Z,48.67
2022-12-16T07:42:11.965Z,55.00
2022-12-16T07:47:34.633Z,58.70
2022-12-16T07:53:00.482Z,53.22
2022-12-16T07:58:21.607Z,36.03
2022-12-16T08:03:43.080Z,28.10
2022-12-16T08:09:04.097Z,42.67
2022-12-16T08:14:25.145Z,53.80
2022-12-16T08:19:46.338Z,53.47
2022-12-16T08:25:08.945Z,61.58
2022-12-16T08:30:30.943Z,48.28
2022-12-16T08:35:51.931Z,42.13
2022-12-16T08:41:14.362Z,41.00
2022-12-16T08:46:35.637Z,45.90
2022-12-16T08:51:56.849Z,45.38
2022-12-16T08:57:18.491Z,52.28
2022-12-16T09:02:40.794Z,61.70
2022-12-16T09:08:01.977Z,60.13
2022-12-16T09:13:41.213Z,72.45
2022-12-16T09:19:02.528Z,80.18
2022-12-16T09:24:25.198Z,78.18
2022-12-16T09:29:46.347Z,95.10
2022-12-16T09:35:13.341Z,94.97
2022-12-16T09:40:36.059Z,100.07
2022-12-16T09:46:16.026Z,91.80
2022-12-16T09:51:37.358Z,96.90
2022-12-16T09:56:58.420Z,92.50
2022-12-16T10:02:20.302Z,115.03
2022-12-16T10:07:44.134Z,115.57
2022-12-16T10:13:41.574Z,122.05
2022-12-16T10:19:29.754Z,117.60
2022-12-16T10:25:03.634Z,111.50
2022-12-16T10:30:31.261Z,121.07
2022-12-16T10:36:01.077Z,123.50
2022-12-16T10:41:22.416Z,127.20
2022-12-16T10:46:47.283Z,139.98
2022-12-16T10:52:09.895Z,158.65
2022-12-16T10:57:37.344Z,205.57
2022-12-16T11:02:59.290Z,268.27
2022-12-16T11:08:20.825Z,262.95
2022-12-16T11:14:00.287Z,358.75
2022-12-16T11:19:21.577Z,369.30
2022-12-16T11:24:42.603Z,442.63
2022-12-16T11:30:31.686Z,500.95
2022-12-16T11:35:55.612Z,526.55
2022-12-16T11:41:18.129Z,536.85
2022-12-16T11:46:47.052Z,538.38
2022-12-16T11:52:36.531Z,526.45
2022-12-16T11:58:23.358Z,586.38
2022-12-16T12:03:56.336Z,602.75
2022-12-16T12:09:18.938Z,564.60
2022-12-16T12:14:52.523Z,573.45
2022-12-16T12:20:41.179Z,584.85
2022-12-16T12:26:07.535Z,534.92
2022-12-16T12:31:58.854Z,565.60
2022-12-16T12:37:49.052Z,532.45
2022-12-16T12:43:14.365Z,538.42
2022-12-16T12:48:40.935Z,546.55
2022-12-16T12:54:20.027Z,569.13
2022-12-16T12:59:58.638Z,562.30
2022-12-16T13:05:44.476Z,545.88
2022-12-16T13:11:06.883Z,516.50
2022-12-16T13:16:30.764Z,537.45
2022-12-16T13:21:56.141Z,574.40
2022-12-16T13:27:20.979Z,560.33
2022-12-16T13:32:47.794Z,582.33
2022-12-16T13:38:19.913Z,554.30
2022-12-16T13:44:19.033Z,577.45
2022-12-16T13:49:55.356Z,584.22
2022-12-16T13:55:24.935Z,625.83
2022-12-16T14:00:48.132Z,605.63
2022-12-16T14:06:10.552Z,571.63
2022-12-16T14:11:39.292Z,567.95
2022-12-16T14:17:19.029Z,541.92
2022-12-16T14:23:04.813Z,570.72
2022-12-16T14:28:47.627Z,588.20
2022-12-16T14:34:12.708Z,579.33
2022-12-16T14:39:42.045Z,563.25
2022-12-16T14:45:05.200Z,560.53
2022-12-16T14:50:55.895Z,565.92
2022-12-16T14:56:32.713Z,570.00
2022-12-16T15:01:53.983Z,533.55
2022-12-16T15:07:15.424Z,562.95
2022-12-16T15:12:40.628Z,515.58
2022-12-16T15:18:06.808Z,527.67
2022-12-16T15:23:58.861Z,540.90
2022-12-16T15:29:20.192Z,510.02
2022-12-16T15:34:51.565Z,544.50
2022-12-16T15:40:12.760Z,500.52
2022-12-16T15:45:43.155Z,514.40
2022-12-16T15:51:11.417Z,518.05
2022-12-16T15:56:42.022Z,507.08
2022-12-16T16:02:05.234Z,522.00
2022-12-16T16:07:36.459Z,453.63
2022-12-16T16:12:57.544Z,494.60
2022-12-16T16:18:25.191Z,461.23
2022-12-16T16:23:51.672Z,512.88
2022-12-16T16:29:12.572Z,499.80
2022-12-16T16:34:34.047Z,497.65
2022-12-16T16:39:55.292Z,505.00
2022-12-16T16:45:17.207Z,451.10
2022-12-16T16:50:38.558Z,459.40
2022-12-16T16:55:59.932Z,461.42
2022-12-16T17:01:22.018Z,420.95
2022-12-16T17:06:43.814Z,446.83
2022-12-16T17:12:05.215Z,411.08
2022-12-16T17:17:28.380Z,431.33
2022-12-16T17:22:50.922Z,398.98
2022-12-16T17:28:30.820Z,439.60
2022-12-16T17:33:52.125Z,487.98
2022-12-16T17:39:14.123Z,455.75
2022-12-16T17:44:39.573Z,451.60
2022-12-16T17:50:02.973Z,427.60
2022-12-16T17:55:25.782Z,447.50
2022-12-16T18:00:48.297Z,448.07
2022-12-16T18:06:16.956Z,470.92
2022-12-16T18:11:39.130Z,452.38
2022-12-16T18:17:00.391Z,488.38
2022-12-16T18:22:23.738Z,450.17
2022-12-16T18:28:04.145Z,446.08
2022-12-16T18:33:25.587Z,430.90
2022-12-16T18:38:47.348Z,447.90
2022-12-16T18:44:08.792Z,417.17
2022-12-16T18:49:29.989Z,430.27
2022-12-16T18:54:51.986Z,452.50
2022-12-16T19:00:16.177Z,405.40
2022-12-16T19:05:38.378Z,428.42
2022-12-16T19:11:00.493Z,430.75
2022-12-16T19:16:22.353Z,456.67
2022-12-16T19:21:48.276Z,416.45
2022-12-16T19:27:15.509Z,434.33
2022-12-16T19:32:37.103Z,403.43
2022-12-16T19:37:58.412Z,363.85
2022-12-16T19:43:19.701Z,411.33
2022-12-16T19:48:40.820Z,393.25
2022-12-16T19:54:16.111Z,430.77
2022-12-16T19:59:37.750Z,425.50
2022-12-16T20:05:00.711Z,394.80
2022-12-16T20:10:22.582Z,401.23
2022-12-16T20:15:44.110Z,438.88
2022-12-16T20:21:04.997Z,401.23
2022-12-16T20:26:26.114Z,403.33
2022-12-16T20:31:48.382Z,381.67
2022-12-16T20:37:11.147Z,367.42
2022-12-16T20:42:32.623Z,383.60
2022-12-16T20:47:54.697Z,363.10
2022-12-16T20:53:17.562Z,401.90
2022-12-16T20:58:46.328Z,383.10
2022-12-16T21:04:08.017Z,352.67
2022-12-16T21:09:44.047Z,343.10
2022-12-16T21:15:05.129Z,323.13
2022-12-16T21:20:27.022Z,308.52
2022-12-16T21:25:48.313Z,315.25
2022-12-16T21:31:09.972Z,364.40
2022-12-16T21:36:30.922Z,373.52
2022-12-16T21:41:52.604Z,356.15
2022-12-16T21:47:17.163Z,386.10
2022-12-16T21:52:38.272Z,303.90
2022-12-16T21:58:01.617Z,319.38
2022-12-16T22:03:23.292Z,333.92
2022-12-16T22:08:45.403Z,277.50
2022-12-16T22:14:06.999Z,254.98
2022-12-16T22:19:29.122Z,246.57
2022-12-16T22:24:50.319Z,265.00
2022-12-16T22:30:11.176Z,265.45
2022-12-16T22:35:32.358Z,241.10
2022-12-16T22:40:53.289Z,180.90
2022-12-16T22:46:18.612Z,130.60
2022-12-16T22:51:39.831Z,149.63
2022-12-16T22:57:01.795Z,176.88
2022-12-16T23:02:22.656Z,206.30
2022-12-16T23:07:43.635Z,160.07
2022-12-16T23:13:04.838Z,170.38
2022-12-16T23:18:26.089Z,159.73
2022-12-16T23:23:47.167Z,183.90
2022-12-16T23:29:10.456Z,177.23
2022-12-16T23:34:32.703Z,204.50
2022-12-16T23:39:53.907Z,149.82
2022-12-16T23:45:18.875Z,157.57
2022-12-16T23:50:40.018Z,166.25
2022-12-16T23:56:01.508Z,111.43
